Time;durP1;ratioP1;P1;durP2;ratioP2;P2;SDS_P1;SDS_P2;PMS_P1;PMS_P2;Temp;Humidity;BMP_temperature;BMP_pressure;BME280_temperature;BME280_humidity;BME280_pressure;Samples;Min_cycle;Max_cycle;Signal;HPM_P1;HPM_P2
2024/03/17 00:01:03;;;;;;;1.48;1.05;;;4.50;99.90;;;;;;4934620;28;20039;-77
2024/03/17 00:03:30;;;;;;;0.50;0.50;;;3.20;99.90;;;;;;4951325;28;20050;-77
2024/03/17 00:05:59;;;;;;;0.70;0.70;;;3.20;99.90;;;;;;4934045;28;20503;-77
2024/03/17 00:08:26;;;;;;;0.65;0.65;;;3.10;99.90;;;;;;4934358;28;20047;-77
2024/03/17 00:10:52;;;;;;;0.52;0.52;;;3.10;99.90;;;;;;4949224;28;20688;-77
2024/03/17 00:13:18;;;;;;;0.60;0.60;;;3.10;99.90;;;;;;4950294;28;20043;-76
2024/03/17 00:15:50;;;;;;;0.60;0.60;;;3.00;99.90;;;;;;4933491;28;20418;-77
2024/03/17 00:18:17;;;;;;;0.65;0.65;;;2.90;99.90;;;;;;4967217;28;20043;-77
2024/03/17 00:20:42;;;;;;;0.60;0.60;;;3.00;99.90;;;;;;4967454;28;20490;-77
2024/03/17 00:23:11;;;;;;;0.50;0.50;;;2.80;99.90;;;;;;4943637;28;20141;-77
2024/03/17 00:25:38;;;;;;;0.60;0.60;;;2.90;99.90;;;;;;4950026;28;20046;-76
2024/03/17 00:28:04;;;;;;;0.68;0.68;;;2.80;99.90;;;;;;4947193;28;20145;-77
2024/03/17 00:30:31;;;;;;;;;;;2.80;99.90;;;;;;4971277;28;20050;-79
2024/03/17 00:32:58;;;;;;;0.60;0.60;;;2.70;99.90;;;;;;4985960;28;20012;-81
2024/03/17 00:35:24;;;;;;;0.60;0.60;;;2.70;99.90;;;;;;4936155;28;20046;-79
2024/03/17 00:37:51;;;;;;;0.60;0.60;;;2.70;99.90;;;;;;4971473;28;20097;-80
2024/03/17 00:40:20;;;;;;;;;;;2.90;99.90;;;;;;4975390;28;20046;-81
2024/03/17 00:42:46;;;;;;;0.52;0.52;;;2.60;99.90;;;;;;4990199;28;19917;-80
2024/03/17 00:45:12;;;;;;;0.65;0.65;;;3.20;99.90;;;;;;4956206;28;20035;-78
2024/03/17 00:47:38;;;;;;;0.70;0.70;;;2.60;99.90;;;;;;4955341;28;20038;-80
2024/03/17 00:50:06;;;;;;;;;;;2.50;99.90;;;;;;4957501;28;20042;-79
2024/03/17 00:52:32;;;;;;;0.77;0.77;;;2.50;99.90;;;;;;4988560;28;19917;-79
2024/03/17 00:54:57;;;;;;;0.60;0.60;;;3.70;99.90;;;;;;4954283;28;20038;-80
2024/03/17 00:57:23;;;;;;;0.70;0.70;;;2.40;99.90;;;;;;4989809;28;20046;-80
2024/03/17 00:59:50;;;;;;;0.70;0.70;;;2.30;99.90;;;;;;4956114;28;20066;-80
2024/03/17 01:02:16;;;;;;;0.60;0.60;;;2.40;99.90;;;;;;4971532;28;20077;-80
2024/03/17 01:04:43;;;;;;;0.70;0.70;;;2.20;99.90;;;;;;4938746;28;20050;-80
2024/03/17 01:07:09;;;;;;;0.70;0.70;;;2.10;99.90;;;;;;4971596;28;20100;-80
2024/03/17 01:09:35;;;;;;;0.60;0.60;;;3.50;99.90;;;;;;4973678;28;20069;-80
2024/03/17 01:12:01;;;;;;;0.60;0.60;;;1.90;99.90;;;;;;4964110;28;20442;-80
2024/03/17 01:14:27;;;;;;;;;;;1.80;99.90;;;;;;4973513;28;20049;-80
2024/03/17 01:16:53;;;;;;;0.40;0.40;;;1.70;99.90;;;;;;4990035;28;19929;-79
2024/03/17 01:19:19;;;;;;;0.60;0.60;;;1.70;99.90;;;;;;4967633;28;20296;-78
2024/03/17 01:21:44;;;;;;;0.70;0.70;;;1.60;99.90;;;;;;4972144;28;20121;-79
2024/03/17 01:24:10;;;;;;;0.60;0.60;;;1.50;99.90;;;;;;4979165;28;20042;-78
2024/03/17 01:26:35;;;;;;;0.50;0.50;;;1.50;99.90;;;;;;4970142;28;20092;-79
2024/03/17 01:29:01;;;;;;;0.60;0.60;;;1.50;99.90;;;;;;4953590;28;20078;-78
2024/03/17 01:31:30;;;;;;;0.63;0.63;;;1.50;99.90;;;;;;4952213;28;20042;-78
2024/03/17 01:33:56;;;;;;;0.60;0.60;;;1.70;99.90;;;;;;4951364;28;20110;-78
2024/03/17 01:36:21;;;;;;;0.70;0.70;;;1.40;99.90;;;;;;4937858;28;20166;-79
2024/03/17 01:38:47;;;;;;;0.88;0.88;;;1.30;99.90;;;;;;4936135;28;20122;-78
2024/03/17 01:41:14;;;;;;;0.70;0.70;;;2.80;99.90;;;;;;4953323;28;20550;-79
2024/03/17 01:43:40;;;;;;;0.60;0.60;;;1.20;99.90;;;;;;4956717;28;20050;-78
2024/03/17 01:46:11;;;;;;;0.70;0.70;;;1.20;99.90;;;;;;4952852;28;20089;-78
2024/03/17 01:48:38;;;;;;;0.70;0.70;;;1.10;99.90;;;;;;4970310;28;20043;-78
2024/03/17 01:51:04;;;;;;;0.70;0.70;;;1.10;99.90;;;;;;4920791;28;20087;-77
2024/03/17 01:53:30;;;;;;;0.63;0.63;;;1.10;99.90;;;;;;4970797;28;20078;-78
2024/03/17 01:55:58;;;;;;;0.70;0.70;;;1.00;99.90;;;;;;4970143;28;20035;-77
2024/03/17 01:58:27;;;;;;;0.57;0.57;;;1.00;99.90;;;;;;4952635;28;20406;-77
2024/03/17 02:00:52;;;;;;;0.60;0.60;;;1.00;99.90;;;;;;4969538;28;20058;-77
2024/03/17 02:03:18;;;;;;;0.70;0.70;;;1.10;99.90;;;;;;4952870;28;20035;-77
2024/03/17 02:05:45;;;;;;;0.55;0.55;;;1.10;99.90;;;;;;4937140;28;20487;-78
2024/03/17 02:08:11;;;;;;;0.70;0.70;;;2.00;99.90;;;;;;4937007;28;20055;-78
2024/03/17 02:10:37;;;;;;;0.52;0.52;;;1.00;99.90;;;;;;4952409;28;20519;-77
2024/03/17 02:13:03;;;;;;;0.77;0.77;;;1.00;99.90;;;;;;4934576;28;20121;-77
2024/03/17 02:15:29;;;;;;;;;;;0.90;99.90;;;;;;4970475;28;20618;-77
2024/03/17 02:17:55;;;;;;;0.70;0.70;;;0.90;99.90;;;;;;4952380;28;19922;-77
2024/03/17 02:20:54;;;;;;;0.70;0.70;;;1.30;99.90;;;;;;4952458;28;20057;-77
2024/03/17 02:23:07;;;;;;;0.80;0.80;;;0.90;99.90;;;;;;4967859;28;20051;-77
2024/03/17 02:25:32;;;;;;;0.70;0.70;;;0.80;99.90;;;;;;4951985;28;20097;-77
2024/03/17 02:27:58;;;;;;;0.65;0.65;;;0.80;99.90;;;;;;4957205;28;20058;-77
2024/03/17 02:30:24;;;;;;;0.75;0.75;;;0.80;99.90;;;;;;4975423;28;20049;-77
2024/03/17 02:32:54;;;;;;;0.63;0.63;;;0.80;99.90;;;;;;4963850;28;20046;-77
2024/03/17 02:35:22;;;;;;;0.70;0.70;;;1.10;99.90;;;;;;4959585;28;20100;-77
2024/03/17 02:37:48;;;;;;;0.77;0.77;;;1.10;99.90;;;;;;4958374;28;20097;-77
2024/03/17 02:40:14;;;;;;;0.80;0.80;;;0.90;99.90;;;;;;4946278;28;20442;-77
2024/03/17 02:42:41;;;;;;;0.70;0.70;;;0.90;99.90;;;;;;4962395;28;20599;-77
2024/03/17 02:45:10;;;;;;;0.80;0.80;;;0.90;99.90;;;;;;4966225;28;20129;-78
2024/03/17 02:47:35;;;;;;;0.60;0.60;;;0.90;99.90;;;;;;4945499;28;20459;-77
2024/03/17 02:50:01;;;;;;;0.77;0.77;;;0.90;99.90;;;;;;4946329;28;20065;-77
2024/03/17 02:52:27;;;;;;;0.80;0.80;;;1.40;99.90;;;;;;4947270;28;20066;-78
2024/03/17 02:54:55;;;;;;;0.80;0.80;;;1.00;99.90;;;;;;4988614;28;20097;-77
2024/03/17 02:57:24;;;;;;;0.70;0.70;;;1.00;99.90;;;;;;4960128;28;20042;-78
2024/03/17 02:59:51;;;;;;;0.70;0.70;;;1.00;99.90;;;;;;4969556;28;20045;-77
2024/03/17 03:02:17;;;;;;;0.60;0.60;;;1.10;99.90;;;;;;4961473;28;20498;-77
2024/03/17 03:04:43;;;;;;;;;;;1.20;99.90;;;;;;4970512;28;20034;-77
2024/03/17 03:07:09;;;;;;;0.60;0.60;;;1.30;99.90;;;;;;4965230;28;20405;-77
2024/03/17 03:09:34;;;;;;;0.70;0.70;;;1.40;99.90;;;;;;4949089;28;20039;-77
2024/03/17 03:12:04;;;;;;;0.70;0.70;;;1.50;99.90;;;;;;4951211;28;20045;-77
2024/03/17 03:14:30;;;;;;;0.80;0.80;;;1.60;99.90;;;;;;4953112;28;20047;-78
2024/03/17 03:16:55;;;;;;;;;;;1.70;99.90;;;;;;4961238;28;20042;-77
2024/03/17 03:19:21;;;;;;;0.60;0.60;;;1.80;99.90;;;;;;4965390;28;19917;-77
2024/03/17 03:21:47;;;;;;;0.80;0.80;;;2.10;99.90;;;;;;4948342;28;20045;-77
2024/03/17 03:24:17;;;;;;;0.60;0.60;;;1.90;99.90;;;;;;4963950;28;20121;-77
2024/03/17 03:26:43;;;;;;;0.60;0.60;;;2.00;99.90;;;;;;4964315;28;20585;-76
2024/03/17 03:29:14;;;;;;;0.70;0.70;;;2.00;99.90;;;;;;4959045;28;20049;-78
2024/03/17 03:31:40;;;;;;;0.70;0.70;;;2.10;99.90;;;;;;4983081;28;20417;-77
2024/03/17 03:34:08;;;;;;;;;;;2.20;99.90;;;;;;4975129;28;20046;-77
2024/03/17 03:36:34;;;;;;;;;;;2.70;99.90;;;;;;4993198;28;20027;-78
2024/03/17 03:39:00;;;;;;;0.70;0.70;;;2.30;99.90;;;;;;4974255;28;19961;-77
2024/03/17 03:41:25;;;;;;;0.60;0.60;;;2.80;99.90;;;;;;4989777;28;20308;-78
2024/03/17 03:43:52;;;;;;;0.70;0.70;;;2.40;99.90;;;;;;4993680;28;20519;-78
2024/03/17 03:46:18;;;;;;;0.60;0.60;;;2.40;99.90;;;;;;4980704;28;20545;-79
2024/03/17 03:48:43;;;;;;;0.70;0.70;;;2.50;99.90;;;;;;5001758;28;20142;-78
2024/03/17 03:51:10;;;;;;;0.60;0.60;;;2.50;99.90;;;;;;4956624;28;20182;-78
2024/03/17 03:53:37;;;;;;;0.60;0.60;;;2.60;99.90;;;;;;4936744;28;20051;-78
2024/03/17 03:56:06;;;;;;;0.70;0.70;;;2.60;99.90;;;;;;4953722;28;20042;-77
2024/03/17 03:58:40;;;;;;;0.60;0.60;;;2.70;99.90;;;;;;4971056;28;20043;-77
2024/03/17 04:01:15;;;;;;;0.60;0.60;;;3.40;99.90;;;;;;5001762;28;20149;-77
2024/03/17 04:03:41;;;;;;;0.70;0.70;;;3.70;99.90;;;;;;4941366;28;20042;-77
2024/03/17 04:06:09;;;;;;;0.70;0.70;;;2.80;99.90;;;;;;4956787;28;20038;-77
2024/03/17 04:08:36;;;;;;;0.43;0.43;;;2.80;99.90;;;;;;4973098;28;20046;-77
2024/03/17 04:11:02;;;;;;;0.60;0.60;;;2.90;99.90;;;;;;4973875;28;20045;-77
2024/03/17 04:13:29;;;;;;;0.50;0.50;;;2.90;99.90;;;;;;4964400;28;20046;-78
2024/03/17 04:15:56;;;;;;;0.50;0.50;;;3.00;99.90;;;;;;4973952;28;20393;-78
2024/03/17 04:18:24;;;;;;;0.55;0.55;;;3.00;99.90;;;;;;4990642;28;20100;-78
2024/03/17 04:20:53;;;;;;;0.60;0.60;;;3.00;99.90;;;;;;4974105;28;20034;-78
2024/03/17 04:23:23;;;;;;;0.60;0.60;;;3.00;99.90;;;;;;4941765;28;20053;-78
2024/03/17 04:25:50;;;;;;;0.50;0.50;;;3.10;99.90;;;;;;4974201;28;20093;-78
2024/03/17 04:28:16;;;;;;;0.55;0.55;;;3.10;99.90;;;;;;4950452;28;20062;-78
2024/03/17 04:30:45;;;;;;;0.60;0.60;;;3.20;99.90;;;;;;4956265;28;20050;-78
2024/03/17 04:33:12;;;;;;;0.88;0.88;;;3.20;99.90;;;;;;4954830;28;20082;-78
2024/03/17 04:35:38;;;;;;;0.60;0.60;;;3.20;99.90;;;;;;4940956;28;20108;-78
2024/03/17 04:38:09;;;;;;;0.60;0.60;;;3.20;99.90;;;;;;4954625;28;20093;-77
2024/03/17 04:40:43;;;;;;;0.60;0.60;;;2.00;99.90;;;;;;4955205;28;20128;-78
2024/03/17 04:43:09;;;;;;;0.50;0.50;;;3.30;99.90;;;;;;4972235;28;20039;-77
2024/03/17 04:45:35;;;;;;;0.60;0.60;;;3.30;99.90;;;;;;4972416;28;20042;-77
2024/03/17 04:48:01;;;;;;;0.60;0.60;;;3.30;99.90;;;;;;4955015;28;20035;-78
2024/03/17 04:50:31;;;;;;;0.60;0.60;;;3.30;99.90;;;;;;4954192;28;20042;-78
2024/03/17 04:52:58;;;;;;;0.60;0.60;;;3.30;99.90;;;;;;4954526;28;20046;-78
2024/03/17 04:55:23;;;;;;;0.60;0.60;;;3.40;99.90;;;;;;4954529;28;20046;-77
2024/03/17 04:57:49;;;;;;;0.50;0.50;;;3.40;99.90;;;;;;4952853;28;20042;-78
2024/03/17 05:00:17;;;;;;;0.55;0.55;;;3.40;99.90;;;;;;4974945;28;20042;-78
2024/03/17 05:02:44;;;;;;;0.57;0.57;;;3.40;99.90;;;;;;4938994;28;20046;-78
2024/03/17 05:05:10;;;;;;;0.50;0.50;;;3.40;99.90;;;;;;4959118;28;20057;-78
2024/03/17 05:07:37;;;;;;;0.60;0.60;;;3.40;99.90;;;;;;4941902;28;20129;-78
2024/03/17 05:10:03;;;;;;;0.55;0.55;;;3.40;99.90;;;;;;4969590;28;20047;-79
2024/03/17 05:12:28;;;;;;;;;;;3.40;99.90;;;;;;4956228;28;20057;-79
2024/03/17 05:14:54;;;;;;;0.60;0.60;;;3.40;99.90;;;;;;4939262;28;19941;-78
2024/03/17 05:17:20;;;;;;;1.00;1.00;;;3.60;99.90;;;;;;4956731;28;20173;-78
2024/03/17 05:19:45;;;;;;;0.40;0.40;;;3.40;99.90;;;;;;4972617;28;20092;-78
2024/03/17 05:22:11;;;;;;;0.60;0.60;;;3.40;99.90;;;;;;4973360;28;20732;-78
2024/03/17 05:24:37;;;;;;;0.60;0.60;;;3.40;99.90;;;;;;4973993;28;20058;-77
2024/03/17 05:27:03;;;;;;;0.57;0.57;;;3.30;99.90;;;;;;4953784;28;20141;-78
2024/03/17 05:29:29;;;;;;;0.50;0.50;;;3.40;99.90;;;;;;4952626;28;20046;-78
2024/03/17 05:31:55;;;;;;;0.60;0.60;;;3.30;99.90;;;;;;4953726;28;20086;-77
2024/03/17 05:34:21;;;;;;;0.52;0.52;;;2.90;99.90;;;;;;4953072;28;20485;-78
2024/03/17 05:36:47;;;;;;;0.68;0.68;;;3.40;99.90;;;;;;4920606;28;20078;-78
2024/03/17 05:39:13;;;;;;;0.60;0.60;;;3.50;99.90;;;;;;4935692;28;20041;-78
2024/03/17 05:41:41;;;;;;;0.52;0.52;;;3.40;99.90;;;;;;4950404;28;20046;-79
2024/03/17 05:44:06;;;;;;;0.50;0.50;;;3.40;99.90;;;;;;4967522;28;20116;-78
2024/03/17 05:46:32;;;;;;;0.60;0.60;;;4.00;99.90;;;;;;4950657;28;20502;-78
2024/03/17 05:48:58;;;;;;;0.63;0.63;;;3.80;99.90;;;;;;4951939;28;20482;-79
2024/03/17 05:51:27;;;;;;;0.60;0.60;;;3.40;99.90;;;;;;4952336;28;20061;-79
2024/03/17 05:53:53;;;;;;;0.60;0.60;;;3.40;99.90;;;;;;4953218;28;20042;-79
2024/03/17 05:56:18;;;;;;;0.50;0.50;;;3.40;99.90;;;;;;4970308;28;20054;-80
2024/03/17 05:58:44;;;;;;;0.50;0.50;;;3.40;99.90;;;;;;4920649;28;20030;-79
2024/03/17 06:01:11;;;;;;;0.60;0.60;;;3.40;99.90;;;;;;4952763;28;20035;-80
2024/03/17 06:03:37;;;;;;;0.47;0.47;;;3.60;99.90;;;;;;4970146;28;20537;-79
2024/03/17 06:06:03;;;;;;;0.60;0.60;;;3.70;99.90;;;;;;4952527;28;20046;-79
2024/03/17 06:08:29;;;;;;;0.50;0.50;;;3.40;99.90;;;;;;4937020;28;20406;-79
2024/03/17 06:11:00;;;;;;;0.60;0.60;;;3.40;99.90;;;;;;4952924;28;20435;-79
2024/03/17 06:13:28;;;;;;;0.50;0.50;;;3.40;99.90;;;;;;4952040;28;20625;-79
2024/03/17 06:15:54;;;;;;;0.55;0.55;;;3.50;99.90;;;;;;4936692;28;20146;-80
2024/03/17 06:18:27;;;;;;;0.60;0.60;;;3.50;99.90;;;;;;4969484;28;20490;-79
2024/03/17 06:20:53;;;;;;;0.57;0.57;;;3.50;99.90;;;;;;4950645;28;20042;-79
2024/03/17 06:23:19;;;;;;;0.63;0.63;;;3.60;99.90;;;;;;4950784;28;20058;-77
2024/03/17 06:25:46;;;;;;;;;;;3.70;99.90;;;;;;4950975;28;20043;-79
2024/03/17 06:28:15;;;;;;;0.52;0.52;;;4.30;99.90;;;;;;4966213;28;20064;-80
2024/03/17 06:30:48;;;;;;;0.60;0.60;;;;;;;;;;4953846;28;20518;-79
2024/03/17 06:33:19;;;;;;;0.52;0.52;;;3.90;99.90;;;;;;4971432;28;20067;-79
2024/03/17 06:35:46;;;;;;;0.40;0.40;;;4.00;99.90;;;;;;4971388;28;20112;-78
2024/03/17 06:38:12;;;;;;;0.60;0.60;;;4.10;99.90;;;;;;4971577;28;20073;-78
2024/03/17 06:40:39;;;;;;;0.50;0.50;;;4.20;99.90;;;;;;4971236;28;20066;-77
2024/03/17 06:43:05;;;;;;;;;;;4.30;99.90;;;;;;4971617;28;20046;-79
2024/03/17 06:45:30;;;;;;;0.50;0.50;;;4.30;99.90;;;;;;4970419;28;20008;-78
2024/03/17 06:47:56;;;;;;;0.50;0.50;;;4.40;99.90;;;;;;4955175;28;20169;-79
2024/03/17 06:50:22;;;;;;;0.70;0.70;;;5.20;99.90;;;;;;4972250;28;20053;-78
2024/03/17 06:52:48;;;;;;;0.50;0.50;;;4.50;99.90;;;;;;4970031;28;20490;-79
2024/03/17 06:55:14;;;;;;;0.50;0.50;;;4.60;99.90;;;;;;4988469;28;20038;-80
2024/03/17 06:57:43;;;;;;;0.50;0.50;;;4.60;99.90;;;;;;4968384;28;20125;-81
2024/03/17 07:00:29;;;;;;;0.43;0.43;;;5.60;99.90;;;;;;4971550;28;20509;-80
2024/03/17 07:02:55;;;;;;;0.75;0.75;;;4.80;99.90;;;;;;4983554;28;20050;-80
2024/03/17 07:05:21;;;;;;;0.50;0.50;;;5.00;99.90;;;;;;4971932;28;20493;-79
2024/03/17 07:07:46;;;;;;;0.50;0.50;;;5.00;99.90;;;;;;4970576;28;20203;-81
2024/03/17 07:10:13;;;;;;;0.60;0.60;;;5.10;99.90;;;;;;4970554;28;20129;-80
2024/03/17 07:12:39;;;;;;;0.50;0.50;;;5.90;99.90;;;;;;4995476;28;20061;-81
2024/03/17 07:15:05;;;;;;;0.43;0.43;;;5.80;99.90;;;;;;4988896;28;20034;-81
2024/03/17 07:17:32;;;;;;;0.40;0.40;;;5.50;99.90;;;;;;4952367;28;20414;-79
2024/03/17 07:19:58;;;;;;;0.40;0.40;;;5.70;99.90;;;;;;4955026;28;20505;-78
2024/03/17 07:22:26;;;;;;;0.40;0.40;;;5.90;99.90;;;;;;4954396;28;20065;-80
2024/03/17 07:24:55;;;;;;;0.50;0.50;;;6.40;99.90;;;;;;4970377;28;20042;-79
2024/03/17 07:27:21;;;;;;;0.47;0.47;;;6.20;99.90;;;;;;4964866;28;20265;-79
2024/03/17 07:29:47;;;;;;;;;;;6.30;99.90;;;;;;4972777;28;20109;-79
2024/03/17 07:32:13;;;;;;;0.47;0.47;;;6.30;99.90;;;;;;4957121;28;19962;-79
2024/03/17 07:34:38;;;;;;;0.50;0.50;;;6.40;99.90;;;;;;4958819;28;20053;-79
2024/03/17 07:37:06;;;;;;;0.60;0.60;;;6.50;99.90;;;;;;4939984;28;20039;-79
2024/03/17 07:39:32;;;;;;;0.50;0.50;;;6.90;99.90;;;;;;4978854;28;20041;-79
2024/03/17 07:41:59;;;;;;;;;;;6.60;99.90;;;;;;4944036;28;20031;-79
2024/03/17 07:44:25;;;;;;;0.40;0.40;;;6.60;99.90;;;;;;4972345;28;19922;-79
2024/03/17 07:46:51;;;;;;;0.50;0.50;;;6.70;99.90;;;;;;4974947;28;20039;-80
2024/03/17 07:49:16;;;;;;;0.68;0.68;;;6.70;99.90;;;;;;4976662;28;20494;-80
2024/03/17 07:51:43;;;;;;;0.52;0.52;;;7.20;99.90;;;;;;4975008;28;20085;-80
2024/03/17 07:54:09;;;;;;;0.55;0.55;;;6.70;99.90;;;;;;4956612;28;20471;-80
2024/03/17 07:56:35;;;;;;;0.82;0.82;;;6.70;99.90;;;;;;4956028;28;20046;-78
2024/03/17 07:59:01;;;;;;;0.32;0.32;;;6.80;99.90;;;;;;4972683;28;20043;-78
2024/03/17 08:01:26;;;;;;;0.43;0.43;;;6.90;99.90;;;;;;4953572;28;20081;-79
2024/03/17 08:03:55;;;;;;;1.90;0.68;;;6.90;99.90;;;;;;4952752;28;20049;-79
2024/03/17 08:06:21;;;;;;;0.50;0.50;;;7.00;99.90;;;;;;4940992;28;20124;-81
2024/03/17 08:08:47;;;;;;;0.40;0.40;;;7.10;99.90;;;;;;4953650;28;20053;-81
2024/03/17 08:11:13;;;;;;;0.40;0.40;;;7.20;99.90;;;;;;4954969;28;20375;-81
2024/03/17 08:13:39;;;;;;;0.32;0.32;;;7.20;99.90;;;;;;4958035;28;20049;-81
2024/03/17 08:16:06;;;;;;;0.40;0.40;;;7.20;99.90;;;;;;4938022;28;20046;-81
2024/03/17 08:18:33;;;;;;;0.50;0.50;;;7.30;99.90;;;;;;4969196;28;20039;-81
2024/03/17 08:21:01;;;;;;;0.40;0.40;;;7.30;99.90;;;;;;4935849;28;20050;-80
2024/03/17 08:23:27;;;;;;;0.63;0.63;;;7.40;99.90;;;;;;4970002;28;20065;-81
2024/03/17 08:25:53;;;;;;;1.15;1.15;;;7.50;99.90;;;;;;4972693;28;20495;-80
2024/03/17 08:28:19;;;;;;;0.35;0.35;;;7.50;99.90;;;;;;4952994;28;20078;-80
2024/03/17 08:30:55;;;;;;;;;;;7.60;99.90;;;;;;4958346;28;20041;-81
2024/03/17 08:33:22;;;;;;;0.60;0.60;;;7.70;99.90;;;;;;4953352;28;20012;-80
2024/03/17 08:35:55;;;;;;;0.43;0.43;;;7.80;99.90;;;;;;4966279;28;20118;-81
2024/03/17 08:38:23;;;;;;;0.30;0.30;;;8.00;99.90;;;;;;4965136;28;20110;-82
2024/03/17 08:40:50;;;;;;;0.65;0.65;;;8.10;99.90;;;;;;4969685;28;20109;-80
2024/03/17 08:43:15;;;;;;;0.30;0.30;;;8.20;99.90;;;;;;4967936;28;20094;-80
2024/03/17 08:45:41;;;;;;;0.60;0.60;;;8.40;99.90;;;;;;4951540;28;20122;-80
2024/03/17 08:48:07;;;;;;;0.45;0.45;;;8.40;99.90;;;;;;4971768;28;20043;-79
2024/03/17 08:50:34;;;;;;;0.40;0.40;;;8.50;99.90;;;;;;4969786;28;20042;-79
2024/03/17 08:52:59;;;;;;;0.50;0.45;;;8.60;99.90;;;;;;4954101;28;20453;-79
2024/03/17 08:55:25;;;;;;;0.30;0.30;;;8.50;99.90;;;;;;4969539;28;20449;-79
2024/03/17 08:57:51;;;;;;;0.30;0.30;;;8.50;99.90;;;;;;4952346;28;20054;-79
2024/03/17 09:00:17;;;;;;;0.40;0.40;;;8.40;99.90;;;;;;4950465;28;20396;-78
2024/03/17 09:02:42;;;;;;;0.40;0.40;;;8.50;99.90;;;;;;4937007;28;20043;-78
2024/03/17 09:05:08;;;;;;;0.80;0.80;;;8.50;99.90;;;;;;4932477;28;20041;-79
2024/03/17 09:07:34;;;;;;;0.35;0.35;;;8.60;99.90;;;;;;4946771;28;20047;-79
2024/03/17 09:09:59;;;;;;;0.40;0.40;;;8.70;99.90;;;;;;4950519;28;20038;-78
2024/03/17 09:12:28;;;;;;;0.40;0.40;;;8.70;99.90;;;;;;4937115;28;20046;-78
2024/03/17 09:14:54;;;;;;;0.25;0.25;;;8.70;99.90;;;;;;4937159;28;20038;-78
2024/03/17 09:17:20;;;;;;;;;;;8.80;99.90;;;;;;4969921;28;20066;-77
2024/03/17 09:19:47;;;;;;;0.32;0.32;;;8.80;99.90;;;;;;4973969;28;20703;-78
2024/03/17 09:22:13;;;;;;;0.30;0.30;;;9.50;99.90;;;;;;4966289;28;20145;-78
2024/03/17 09:24:40;;;;;;;0.38;0.38;;;9.10;99.90;;;;;;4963613;28;20523;-78
2024/03/17 09:27:06;;;;;;;0.30;0.30;;;9.10;99.90;;;;;;4963128;28;20050;-78
2024/03/17 09:29:33;;;;;;;3.83;0.55;;;9.20;99.90;;;;;;4966229;28;20101;-78
2024/03/17 09:31:58;;;;;;;0.40;0.40;;;9.40;99.90;;;;;;4969122;28;20031;-78
2024/03/17 09:34:25;;;;;;;0.40;0.40;;;9.50;99.90;;;;;;4967974;28;20046;-79
2024/03/17 09:36:50;;;;;;;;;;;9.60;99.90;;;;;;4956126;28;20046;-78
2024/03/17 09:39:16;;;;;;;0.20;0.20;;;9.80;99.90;;;;;;4966419;28;20393;-78
2024/03/17 09:41:44;;;;;;;0.28;0.28;;;9.90;99.90;;;;;;4950621;28;20136;-78
2024/03/17 09:44:15;;;;;;;0.32;0.32;;;10.00;99.90;;;;;;4968625;28;20105;-78
2024/03/17 09:46:41;;;;;;;0.20;0.20;;;10.10;99.90;;;;;;4950576;28;20071;-77
2024/03/17 09:49:15;;;;;;;;;;;10.10;99.90;;;;;;4971387;28;20046;-78
2024/03/17 09:51:41;;;;;;;0.38;0.38;;;10.30;99.90;;;;;;4950078;28;20335;-77
2024/03/17 09:54:18;;;;;;;0.50;0.50;;;10.40;99.90;;;;;;4949425;28;20066;-78
2024/03/17 09:56:44;;;;;;;0.30;0.30;;;10.50;99.90;;;;;;4964898;28;20039;-79
2024/03/17 09:59:10;;;;;;;0.38;0.38;;;10.50;99.90;;;;;;4948587;28;20101;-77
2024/03/17 10:01:36;;;;;;;0.38;0.38;;;10.50;99.90;;;;;;4933104;28;20078;-78
2024/03/17 10:04:04;;;;;;;0.40;0.40;;;10.40;99.90;;;;;;4934124;28;20037;-78
2024/03/17 10:06:30;;;;;;;0.20;0.20;;;10.40;99.90;;;;;;4950463;28;20571;-77
2024/03/17 10:08:57;;;;;;;0.35;0.35;;;10.40;99.90;;;;;;4935415;28;20043;-77
2024/03/17 10:11:25;;;;;;;0.30;0.30;;;10.40;99.90;;;;;;4952464;28;20038;-78
2024/03/17 10:14:05;;;;;;;0.30;0.30;;;10.30;99.90;;;;;;4947026;28;20058;-78
2024/03/17 10:16:32;;;;;;;0.30;0.30;;;10.40;99.90;;;;;;4964124;28;20039;-78
2024/03/17 10:19:15;;;;;;;0.40;0.40;;;10.40;99.90;;;;;;4962976;28;20047;-77
2024/03/17 10:21:49;;;;;;;0.35;0.35;;;10.40;99.90;;;;;;4966657;28;20121;-78
2024/03/17 10:24:22;;;;;;;0.30;0.30;;;10.40;99.90;;;;;;4950594;28;20178;-79
2024/03/17 10:26:53;;;;;;;1.15;0.82;;;10.40;99.90;;;;;;4964662;28;20142;-77
2024/03/17 10:29:30;;;;;;;0.30;0.30;;;10.40;99.90;;;;;;4949419;28;20043;-77
2024/03/17 10:32:18;;;;;;;0.30;0.30;;;10.40;99.90;;;;;;4946836;28;20412;-78
2024/03/17 10:34:44;;;;;;;0.50;0.50;;;10.40;99.90;;;;;;4973615;28;20093;-78
2024/03/17 10:37:13;;;;;;;0.50;0.50;;;10.50;99.90;;;;;;4948609;28;20442;-78
2024/03/17 10:39:41;;;;;;;0.30;0.30;;;10.50;99.90;;;;;;4964195;28;20042;-77
2024/03/17 10:42:08;;;;;;;0.32;0.32;;;10.50;99.90;;;;;;4946930;28;20035;-77
2024/03/17 10:44:36;;;;;;;0.63;0.63;;;10.50;99.90;;;;;;4968395;28;20065;-78
2024/03/17 10:47:04;;;;;;;0.60;0.60;;;10.50;99.90;;;;;;4968395;28;20486;-78
2024/03/17 10:49:32;;;;;;;0.38;0.38;;;10.40;99.90;;;;;;4963442;28;20035;-77
2024/03/17 10:52:00;;;;;;;0.98;0.50;;;10.40;99.90;;;;;;4933573;28;20034;-77
2024/03/17 10:54:28;;;;;;;0.25;0.25;;;10.50;99.90;;;;;;4946844;28;20450;-77
2024/03/17 10:57:20;;;;;;;0.30;0.30;;;10.50;99.90;;;;;;4949398;28;20097;-78
2024/03/17 10:59:47;;;;;;;0.30;0.30;;;10.50;99.90;;;;;;4944310;28;20043;-78
2024/03/17 11:02:23;;;;;;;0.68;0.68;;;10.60;99.90;;;;;;4951485;28;20041;-78
2024/03/17 11:04:58;;;;;;;0.30;0.30;;;10.60;99.90;;;;;;4976911;28;20039;-77
2024/03/17 11:07:26;;;;;;;0.52;0.52;;;10.50;99.90;;;;;;4936989;28;20047;-78
2024/03/17 11:09:55;;;;;;;0.30;0.30;;;10.60;99.90;;;;;;4970950;28;20130;-77
2024/03/17 11:12:50;;;;;;;0.20;0.20;;;10.60;99.90;;;;;;4936430;28;20577;-78
2024/03/17 11:15:29;;;;;;;0.40;0.40;;;10.60;99.90;;;;;;4954812;28;20043;-77
2024/03/17 11:18:10;;;;;;;0.47;0.47;;;10.70;99.90;;;;;;4954967;28;20046;-77
2024/03/17 11:20:37;;;;;;;0.73;0.73;;;10.90;99.90;;;;;;4970543;28;20046;-78
2024/03/17 11:23:03;;;;;;;0.40;0.40;;;11.00;99.90;;;;;;4972315;28;20035;-76
2024/03/17 11:25:33;;;;;;;;;;;11.20;99.90;;;;;;4972583;28;20495;-78
2024/03/17 11:28:12;;;;;;;0.20;0.20;;;11.30;99.90;;;;;;4983779;28;19930;-77
2024/03/17 11:30:43;;;;;;;0.75;0.75;;;11.50;99.90;;;;;;4991886;28;20568;-77
2024/03/17 11:33:31;;;;;;;0.50;0.50;;;11.60;99.90;;;;;;4971103;28;20034;-77
2024/03/17 11:36:28;;;;;;;0.63;0.55;;;11.60;99.90;;;;;;4989402;28;20045;-78
2024/03/17 11:39:03;;;;;;;0.40;0.40;;;11.70;99.90;;;;;;4991387;28;20046;-78
2024/03/17 11:41:40;;;;;;;0.20;0.20;;;11.80;99.90;;;;;;4985249;28;20383;-77
2024/03/17 11:44:24;;;;;;;0.70;0.70;;;11.90;99.90;;;;;;4973987;28;20046;-76
2024/03/17 11:47:01;;;;;;;0.40;0.40;;;11.90;99.90;;;;;;4992280;28;20050;-77
2024/03/17 11:49:38;;;;;;;2.47;0.85;;;11.90;99.90;;;;;;4975427;28;20046;-77
2024/03/17 11:52:12;;;;;;;1.10;0.85;;;11.90;99.90;;;;;;4990595;28;20054;-78
2024/03/17 11:54:43;;;;;;;0.43;0.43;;;11.90;99.90;;;;;;4974056;28;20042;-78
2024/03/17 11:57:14;;;;;;;1.30;1.20;;;11.90;99.90;;;;;;4989585;28;20552;-77
2024/03/17 11:59:44;;;;;;;0.35;0.30;;;11.90;99.90;;;;;;4990942;28;20359;-78
2024/03/17 12:02:27;;;;;;;0.30;0.30;;;11.90;99.90;;;;;;4973145;28;20031;-79
2024/03/17 12:04:56;;;;;;;0.57;0.57;;;11.90;99.90;;;;;;4957653;28;20380;-78
2024/03/17 12:07:23;;;;;;;1.27;1.02;;;12.00;99.90;;;;;;4960970;28;20454;-78
2024/03/17 12:09:50;;;;;;;1.65;0.88;;;12.10;99.90;;;;;;4974487;28;20042;-78
2024/03/17 12:12:19;;;;;;;3.38;1.85;;;12.20;99.90;;;;;;4989445;28;20084;-78
2024/03/17 12:14:45;;;;;;;0.80;0.80;;;12.30;99.90;;;;;;4972722;28;20044;-76
2024/03/17 12:17:16;;;;;;;0.30;0.30;;;12.40;99.90;;;;;;4990178;28;20125;-78
2024/03/17 12:19:45;;;;;;;0.40;0.38;;;12.50;99.90;;;;;;4974706;28;20194;-78
2024/03/17 12:22:22;;;;;;;0.65;0.43;;;12.50;99.90;;;;;;4973345;28;20042;-78
2024/03/17 12:24:55;;;;;;;1.35;1.25;;;12.50;99.90;;;;;;4990686;28;20034;-78
2024/03/17 12:27:23;;;;;;;1.75;1.05;;;12.60;99.90;;;;;;4973585;28;20584;-77
2024/03/17 12:29:53;;;;;;;0.25;0.25;;;12.70;99.90;;;;;;4990563;28;20510;-77
2024/03/17 12:32:23;;;;;;;1.17;1.15;;;12.70;99.90;;;;;;4989862;28;20074;-78
2024/03/17 12:34:53;;;;;;;0.50;0.50;;;12.70;99.90;;;;;;4973421;28;20042;-78
2024/03/17 12:37:21;;;;;;;0.30;0.30;;;12.80;99.90;;;;;;4977873;28;20061;-77
2024/03/17 12:39:47;;;;;;;3.20;0.50;;;12.90;99.90;;;;;;4991042;28;20042;-78
2024/03/17 12:42:14;;;;;;;;;;;13.00;99.90;;;;;;4989118;28;20069;-78
2024/03/17 12:44:50;;;;;;;0.30;0.30;;;13.00;99.90;;;;;;4973100;28;19924;-77
2024/03/17 12:47:20;;;;;;;0.75;0.75;;;13.00;99.90;;;;;;4990476;28;20049;-77
2024/03/17 12:49:59;;;;;;;0.22;0.22;;;13.00;99.90;;;;;;4972312;28;20073;-77
2024/03/17 12:52:30;;;;;;;0.68;0.63;;;13.20;99.90;;;;;;4992742;28;20038;-79
2024/03/17 13:00:35;;;;;;;0.38;0.38;;;13.20;99.90;;;;;;4994117;28;20038;-77
2024/03/17 13:03:02;;;;;;;1.10;0.70;;;13.20;99.90;;;;;;4972475;28;20045;-77
2024/03/17 13:05:28;;;;;;;0.35;0.35;;;13.00;99.90;;;;;;4971614;28;20125;-77
2024/03/17 13:07:56;;;;;;;1.13;0.60;;;13.10;99.90;;;;;;4984802;28;20410;-77
2024/03/17 13:10:22;;;;;;;1.10;1.10;;;13.00;99.90;;;;;;4968058;28;20125;-78